createdAt,value
2022-09-10T00:08:31.294Z,117.43
2022-09-10T00:18:36.054Z,117.20
2022-09-10T00:28:41.304Z,118.03
2022-09-10T00:38:44.979Z,118.07
2022-09-10T00:48:50.592Z,118.67
2022-09-10T00:58:54.512Z,121.97
2022-09-10T01:09:00.180Z,118.73
2022-09-10T01:19:26.703Z,117.50
2022-09-10T01:29:39.188Z,119.37
2022-09-10T01:39:45.247Z,119.13
2022-09-10T01:50:06.429Z,120.97
2022-09-10T02:00:12.805Z,126.40
2022-09-10T02:10:21.130Z,121.17
2022-09-10T02:20:26.128Z,119.27
2022-09-10T02:30:31.283Z,118.83
2022-09-10T02:40:35.217Z,119.57
2022-09-10T02:50:41.028Z,119.40
2022-09-10T03:00:45.500Z,116.40
2022-09-10T03:10:50.702Z,117.17
2022-09-10T03:20:54.285Z,118.30
2022-09-10T03:30:59.640Z,113.77
2022-09-10T03:41:04.944Z,119.30
2022-09-10T03:51:10.979Z,115.80
2022-09-10T04:01:16.016Z,115.03
2022-09-10T04:11:27.694Z,113.70
2022-09-10T04:21:33.079Z,115.10
2022-09-10T04:31:39.087Z,113.40
2022-09-10T04:41:48.752Z,115.83
2022-09-10T04:51:54.721Z,114.93
2022-09-10T05:02:00.313Z,116.23
2022-09-10T05:12:06.714Z,115.53
2022-09-10T05:22:11.000Z,112.57
2022-09-10T05:32:15.983Z,113.67
2022-09-10T05:42:22.288Z,112.30
2022-09-10T05:52:27.734Z,112.10
2022-09-10T06:02:36.443Z,113.77
2022-09-10T06:12:46.931Z,114.37
2022-09-10T06:22:52.194Z,115.27
2022-09-10T06:32:58.100Z,116.53
2022-09-10T06:43:03.370Z,116.53
2022-09-10T06:53:32.979Z,119.10
2022-09-10T07:03:38.541Z,112.53
2022-09-10T07:13:44.301Z,108.70
2022-09-10T07:23:52.072Z,106.27
2022-09-10T07:33:59.170Z,107.20
2022-09-10T07:44:04.470Z,102.90
2022-09-10T07:54:17.354Z,105.17
2022-09-10T08:04:28.645Z,103.93
2022-09-10T08:14:34.155Z,102.43
2022-09-10T08:24:38.333Z,102.53
2022-09-10T08:34:43.638Z,104.43
2022-09-10T08:44:54.127Z,105.20
2022-09-10T08:55:15.438Z,103.93
2022-09-10T09:05:23.922Z,106.27
2022-09-10T09:15:41.706Z,105.60
2022-09-10T09:25:50.961Z,105.43
2022-09-10T09:36:03.468Z,104.00
2022-09-10T09:46:16.173Z,103.03
2022-09-10T09:56:30.577Z,103.97
2022-09-10T10:06:46.261Z,101.03
2022-09-10T10:17:00.430Z,117.00
2022-09-10T10:27:04.898Z,105.53
2022-09-10T10:37:20.701Z,111.13
2022-09-10T10:47:52.962Z,113.57
2022-09-10T10:58:29.216Z,111.33
2022-09-10T11:08:41.346Z,112.33
2022-09-10T11:18:52.118Z,114.03
2022-09-10T11:29:05.460Z,114.80
2022-09-10T11:39:19.767Z,118.83
2022-09-10T11:49:32.606Z,123.38
2022-09-10T11:59:55.400Z,128.05
2022-09-10T12:10:14.546Z,126.40
2022-09-10T12:20:25.652Z,136.55
2022-09-10T12:31:00.296Z,149.35
2022-09-10T12:41:10.451Z,150.75
2022-09-10T12:51:32.117Z,142.88
2022-09-10T13:01:46.551Z,136.93
2022-09-10T13:11:54.254Z,126.30
2022-09-10T13:21:59.333Z,124.53
2022-09-10T13:32:09.365Z,118.40
2022-09-10T13:42:42.459Z,122.80
2022-09-10T13:52:51.363Z,123.75
2022-09-10T14:02:58.750Z,125.25
2022-09-10T14:13:03.643Z,118.03
2022-09-10T14:23:15.144Z,116.70
2022-09-10T14:33:31.037Z,118.50
2022-09-10T14:43:39.179Z,121.60
2022-09-10T14:53:44.267Z,121.70
2022-09-10T15:03:49.153Z,114.93
2022-09-10T15:13:56.070Z,113.43
2022-09-10T15:24:01.354Z,111.47
2022-09-10T15:34:06.558Z,120.80
2022-09-10T15:44:11.883Z,118.37
2022-09-10T15:54:15.554Z,116.03
2022-09-10T16:04:20.736Z,113.73
2022-09-10T16:14:24.655Z,110.07
2022-09-10T16:24:29.464Z,106.33
2022-09-10T16:34:33.055Z,111.20
2022-09-10T16:44:39.534Z,111.83
2022-09-10T16:54:43.008Z,114.50
2022-09-10T17:04:47.935Z,115.93
2022-09-10T17:14:51.587Z,119.03
2022-09-10T17:24:56.532Z,117.73
2022-09-10T17:35:00.405Z,105.07
2022-09-10T17:45:07.260Z,105.70
2022-09-10T17:55:10.863Z,100.93
2022-09-10T18:05:15.922Z,119.63
2022-09-10T18:15:19.747Z,101.30
2022-09-10T18:25:25.962Z,101.03
2022-09-10T18:35:29.908Z,96.80
2022-09-10T18:45:35.414Z,100.27
2022-09-10T18:55:38.993Z,95.30
2022-09-10T19:05:44.215Z,94.63
2022-09-10T19:15:56.403Z,94.63
2022-09-10T19:26:02.083Z,88.13
2022-09-10T19:36:08.358Z,99.00
2022-09-10T19:46:15.030Z,89.53
2022-09-10T19:56:21.955Z,95.50
2022-09-10T20:06:28.939Z,97.67
2022-09-10T20:16:32.875Z,104.73
2022-09-10T20:26:41.252Z,93.07
2022-09-10T20:36:45.228Z,98.57
2022-09-10T20:46:50.228Z,98.07
2022-09-10T20:56:53.890Z,121.50
2022-09-10T21:07:00.118Z,110.97
2022-09-10T21:17:03.889Z,111.27
2022-09-10T21:27:09.183Z,112.17
2022-09-10T21:37:12.909Z,99.87
2022-09-10T21:47:18.067Z,94.60
2022-09-10T21:57:21.796Z,91.07
2022-09-10T22:07:27.143Z,91.30
2022-09-10T22:17:30.785Z,96.33
2022-09-10T22:27:35.858Z,93.00
2022-09-10T22:37:39.938Z,99.97
2022-09-10T22:47:45.280Z,91.43
2022-09-10T22:57:48.969Z,92.43
2022-09-10T23:07:54.216Z,92.87
2022-09-10T23:17:57.978Z,94.67
2022-09-10T23:28:07.208Z,89.03
2022-09-10T23:38:10.905Z,91.20
2022-09-10T23:48:16.158Z,87.20
2022-09-10T23:58:20.542Z,90.53
